Time;durP1;ratioP1;P1;durP2;ratioP2;P2;SDS_P1;SDS_P2;PMS_P1;PMS_P2;Temp;Humidity;BMP_temperature;BMP_pressure;BME280_temperature;BME280_humidity;BME280_pressure;Samples;Min_cycle;Max_cycle;Signal;HPM_P1;HPM_P2
2022/07/18 00:00:09;;;;;;;;;;;;;;;17.76;84.28;100190.22;4975822;28;795;-63
2022/07/18 00:02:35;;;;;;;;;;;;;;;17.81;84.18;100192.47;4975838;28;818;-63
2022/07/18 00:05:02;;;;;;;;;;;;;;;17.75;84.33;100191.44;4975742;28;838;-63
2022/07/18 00:07:29;;;;;;;;;;;;;;;17.80;84.76;100185.31;4958365;28;1162;-63
2022/07/18 00:09:55;;;;;;;;;;;;;;;17.88;84.83;100195.09;4958344;28;1182;-63
2022/07/18 00:12:48;;;;;;;;;;;;;;;17.90;84.23;100195.44;4975634;28;882;-63
2022/07/18 00:15:16;;;;;;;;;;;;;;;17.84;83.63;100202.81;4975503;28;938;-63
2022/07/18 00:17:43;;;;;;;;;;;;;;;17.78;83.75;100203.75;4958094;28;1950;-63
2022/07/18 00:20:10;;;;;;;;;;;;;;;17.72;83.77;100204.28;4975373;28;827;-63
2022/07/18 00:22:37;;;;;;;;;;;;;;;17.66;84.05;100206.06;4975407;28;878;-63
2022/07/18 00:25:04;;;;;;;;;;;;;;;17.60;84.17;100213.41;4975654;28;863;-63
2022/07/18 00:27:31;;;;;;;;;;;;;;;17.49;84.95;100204.53;4975331;28;897;-62
2022/07/18 00:29:58;;;;;;;;;;;;;;;17.65;85.35;100212.88;4975408;28;778;-63
2022/07/18 00:32:24;;;;;;;;;;;;;;;18.31;84.05;100210.63;4975435;28;1032;-63
2022/07/18 00:34:50;;;;;;;;;;;;;;;18.65;82.93;100211.16;4975179;28;890;-63
2022/07/18 00:37:16;;;;;;;;;;;;;;;18.77;81.82;100221.59;4974066;28;2016;-63
2022/07/18 00:39:43;;;;;;;;;;;;;;;18.51;81.48;100224.38;4975125;28;890;-64
2022/07/18 00:42:09;;;;;;;;;;;;;;;18.09;82.07;100224.47;4957704;28;1186;-63
2022/07/18 00:44:36;;;;;;;;;;;;;;;17.69;83.21;100224.75;4974990;28;891;-63
2022/07/18 00:47:03;;;;;;;;;;;;;;;17.37;83.99;100219.22;4974940;28;855;-64
2022/07/18 00:49:31;;;;;;;;;;;;;;;17.07;84.88;100229.53;4975228;28;832;-64
2022/07/18 00:51:58;;;;;;;;;;;;;;;16.81;85.96;100223.00;4974860;28;915;-67
2022/07/18 00:54:24;;;;;;;;;;;;;;;16.65;87.23;100235.69;4974966;28;811;-64
2022/07/18 00:56:51;;;;;;;;;;;;;;;16.51;88.59;100231.25;4974726;28;1902;-64
2022/07/18 01:11:28;;;;;;;;;;;;;;;16.88;89.38;100243.19;4974876;28;661;-63
2022/07/18 01:13:54;;;;;;;;;;;;;;;17.04;88.79;100241.59;4974748;28;790;-63
2022/07/18 01:16:21;;;;;;;;;;;;;;;17.19;88.22;100248.41;4974426;28;1890;-63
2022/07/18 01:18:49;;;;;;;;;;;;;;;17.31;87.42;100250.50;4956996;28;1418;-63
2022/07/18 01:21:15;;;;;;;;;;;;;;;17.41;86.96;100253.44;4974486;28;866;-63
2022/07/18 01:23:42;;;;;;;;;;;;;;;17.48;86.83;100247.69;4974327;28;812;-64
2022/07/18 01:26:09;;;;;;;;;;;;;;;17.65;86.78;100243.63;4974288;28;878;-63
2022/07/18 01:28:36;;;;;;;;;;;;;;;18.30;86.21;100253.81;4974252;28;962;-63
2022/07/18 01:31:02;;;;;;;;;;;;;;;19.04;83.39;100251.19;4974209;28;826;-63
2022/07/18 01:33:31;;;;;;;;;;;;;;;19.59;80.23;100252.50;4974427;28;1034;-63
2022/07/18 01:39:07;;;;;;;;;;;;;;;20.22;75.40;100235.84;4971317;28;1291;-63
2022/07/18 01:41:34;;;;;;;;;;;;;;;20.49;72.75;100232.41;4974032;28;862;-63
2022/07/18 01:44:00;;;;;;;;;;;;;;;20.65;71.58;100239.06;4973971;28;886;-63
2022/07/18 01:49:29;;;;;;;;;;;;;;;20.63;70.07;100242.31;4973907;28;613;-65
2022/07/18 01:54:59;;;;;;;;;;;;;;;20.74;69.34;100256.72;4973797;28;668;-63
2022/07/18 01:57:38;;;;;;;;;;;;;;;20.71;69.58;100254.06;4973632;28;1985;-65
2022/07/18 02:00:06;;;;;;;;;;;;;;;20.67;69.42;100253.41;4973635;28;875;-63
2022/07/18 02:02:33;;;;;;;;;;;;;;;20.63;70.08;100253.53;4973596;28;870;-63
2022/07/18 02:04:59;;;;;;;;;;;;;;;20.57;70.14;100259.00;4956289;28;878;-63
2022/07/18 02:10:28;;;;;;;;;;;;;;;20.34;71.51;100263.06;4973546;28;621;-63
2022/07/18 02:12:55;;;;;;;;;;;;;;;20.25;72.39;100262.19;4972930;28;1273;-63
2022/07/18 02:15:20;;;;;;;;;;;;;;;20.15;73.06;100258.56;4973406;28;865;-62
2022/07/18 02:17:48;;;;;;;;;;;;;;;20.06;73.93;100255.72;4973152;28;1949;-63
2022/07/18 02:20:16;;;;;;;;;;;;;;;19.92;74.65;100263.38;4973283;28;815;-63
2022/07/18 02:22:43;;;;;;;;;;;;;;;19.83;75.49;100273.78;4973284;28;815;-63
2022/07/18 02:25:10;;;;;;;;;;;;;;;19.74;76.42;100280.88;4973202;28;807;-65
2022/07/18 02:27:39;;;;;;;;;;;;;;;19.68;76.82;100267.84;4973288;28;827;-65
2022/07/18 02:30:10;;;;;;;;;;;;;;;19.64;77.61;100270.00;4973116;28;914;-64
2022/07/18 02:32:55;;;;;;;;;;;;;;;19.57;78.11;100257.00;4970205;28;1380;-64
2022/07/18 02:35:21;;;;;;;;;;;;;;;19.53;78.85;100264.75;4973814;28;824;-65
2022/07/18 02:37:47;;;;;;;;;;;;;;;19.50;79.16;100277.66;4973002;28;1890;-63
2022/07/18 02:50:23;;;;;;;;;;;;;;;19.36;80.17;100295.72;4968335;28;1166;-63
2022/07/18 02:52:52;;;;;;;;;;;;;;;19.33;80.13;100301.44;4953549;29;828;-65
2022/07/18 02:58:21;;;;;;;;;;;;;;;19.29;80.09;100301.59;4953482;28;638;-64
2022/07/18 03:12:58;;;;;;;;;;;;;;;19.24;78.51;100310.53;4953709;29;610;-63
2022/07/18 03:15:25;;;;;;;;;;;;;;;19.23;78.36;100308.22;4953245;28;851;-63
2022/07/18 03:17:51;;;;;;;;;;;;;;;19.24;78.14;100306.97;4953287;29;1895;-63
2022/07/18 03:20:20;;;;;;;;;;;;;;;19.22;78.11;100320.63;4953302;28;852;-63
2022/07/18 03:22:46;;;;;;;;;;;;;;;19.22;77.72;100320.63;4936171;29;1384;-63
2022/07/18 03:25:13;;;;;;;;;;;;;;;19.23;77.42;100327.81;4953269;29;811;-63
2022/07/18 03:27:40;;;;;;;;;;;;;;;19.25;77.04;100323.34;4936019;29;1277;-63
2022/07/18 03:30:07;;;;;;;;;;;;;;;19.29;76.71;100324.00;4953264;29;855;-63
2022/07/18 03:32:36;;;;;;;;;;;;;;;19.33;76.46;100316.25;4953160;28;905;-63
2022/07/18 03:47:13;;;;;;;;;;;;;;;19.78;70.60;100342.44;4953179;29;638;-63
2022/07/18 03:49:46;;;;;;;;;;;;;;;19.87;69.30;100334.09;4953107;29;847;-63
2022/07/18 03:52:15;;;;;;;;;;;;;;;19.95;68.43;100326.22;4967677;28;1232;-64
2022/07/18 03:54:41;;;;;;;;;;;;;;;20.01;66.95;100329.22;4972410;28;816;-63
2022/07/18 03:57:08;;;;;;;;;;;;;;;20.05;66.52;100319.44;4972187;28;1906;-62
2022/07/18 03:59:35;;;;;;;;;;;;;;;20.07;65.69;100324.59;4972262;28;804;-63
2022/07/18 04:02:01;;;;;;;;;;;;;;;20.10;64.92;100318.06;4954972;28;1178;-64
2022/07/18 04:04:28;;;;;;;;;;;;;;;20.12;64.66;100326.81;4972253;28;894;-64
2022/07/18 04:09:57;;;;;;;;;;;;;;;20.15;64.06;100320.31;4972234;28;653;-63
2022/07/18 04:12:27;;;;;;;;;;;;;;;20.16;64.00;100325.47;4974396;28;858;-63
2022/07/18 04:14:59;;;;;;;;;;;;;;;20.19;63.00;100332.97;4975569;28;812;-64
2022/07/18 04:20:28;;;;;;;;;;;;;;;20.30;61.75;100337.41;4975590;28;681;-63
2022/07/18 04:22:56;;;;;;;;;;;;;;;20.35;61.21;100340.38;4975449;28;858;-63
2022/07/18 04:25:23;;;;;;;;;;;;;;;20.43;60.69;100354.97;4975498;28;853;-63
2022/07/18 04:27:51;;;;;;;;;;;;;;;20.52;60.59;100348.63;4975426;28;806;-64
2022/07/18 04:42:30;;;;;;;;;;;;;;;20.89;59.22;100352.47;4975506;28;606;-63
2022/07/18 04:44:57;;;;;;;;;;;;;;;20.93;59.10;100350.31;4974942;28;815;-63
2022/07/18 04:47:29;;;;;;;;;;;;;;;20.96;58.45;100360.59;4975284;28;823;-63
2022/07/18 04:49:55;;;;;;;;;;;;;;;20.99;57.68;100359.69;4974927;28;834;-63
2022/07/18 04:52:24;;;;;;;;;;;;;;;21.04;57.48;100361.13;4974767;28;1217;-63
2022/07/18 05:07:04;;;;;;;;;;;;;;;21.42;56.87;100360.03;4975054;28;672;-62
2022/07/18 05:09:31;;;;;;;;;;;;;;;21.46;56.30;100354.25;4974598;28;852;-62
2022/07/18 05:11:58;;;;;;;;;;;;;;;21.47;56.23;100353.03;4957271;28;1328;-62
2022/07/18 05:14:46;;;;;;;;;;;;;;;21.52;56.17;100360.84;4974368;28;870;-63
2022/07/18 05:17:13;;;;;;;;;;;;;;;21.70;56.25;100358.06;4955480;29;1950;-62
2022/07/18 05:19:39;;;;;;;;;;;;;;;21.82;55.51;100356.34;4955160;29;830;-61
2022/07/18 05:22:05;;;;;;;;;;;;;;;21.87;55.08;100366.22;4954715;28;875;-62
2022/07/18 05:24:35;;;;;;;;;;;;;;;21.90;54.82;100373.72;4937853;29;1178;-62
2022/07/18 05:27:02;;;;;;;;;;;;;;;22.04;54.55;100373.13;4937715;29;1367;-62
2022/07/18 05:29:32;;;;;;;;;;;;;;;22.13;54.24;100383.59;4954977;29;836;-62
2022/07/18 05:31:59;;;;;;;;;;;;;;;22.22;53.68;100384.41;4954815;29;965;-62
2022/07/18 05:37:27;;;;;;;;;;;;;;;22.35;53.08;100386.28;4954806;29;1961;-62
2022/07/18 05:39:54;;;;;;;;;;;;;;;22.38;52.98;100397.41;4954747;29;878;-62
2022/07/18 05:42:24;;;;;;;;;;;;;;;22.53;53.10;100388.28;4954897;29;799;-61
2022/07/18 05:44:50;;;;;;;;;;;;;;;22.73;52.02;100391.41;4954613;29;859;-62
2022/07/18 05:47:16;;;;;;;;;;;;;;;23.09;50.95;100397.44;4954643;29;839;-61
2022/07/18 06:02:27;;;;;;;;;;;;;;;25.29;45.05;100393.44;4952295;29;1352;-62
2022/07/18 06:04:55;;;;;;;;;;;;;;;25.20;45.19;100391.47;4954268;29;863;-63
2022/07/18 06:07:21;;;;;;;;;;;;;;;25.72;44.40;100397.38;4954297;29;847;-62
2022/07/18 06:09:48;;;;;;;;;;;;;;;25.93;43.55;100386.88;4954162;29;804;-62
2022/07/18 06:12:15;;;;;;;;;;;;;;;26.31;42.31;100389.88;4954114;29;863;-62
2022/07/18 06:14:42;;;;;;;;;;;;;;;26.67;41.94;100396.97;4952559;29;1460;-62
2022/07/18 06:17:09;;;;;;;;;;;;;;;26.31;42.29;100406.88;4954057;29;1906;-62
2022/07/18 06:19:39;;;;;;;;;;;;;;;26.14;42.37;100398.19;4953994;29;852;-61
2022/07/18 06:22:05;;;;;;;;;;;;;;;26.06;42.59;100395.03;4954140;29;796;-62
2022/07/18 06:24:33;;;;;;;;;;;;;;;26.85;42.04;100393.03;4953971;29;847;-62
2022/07/18 06:27:03;;;;;;;;;;;;;;;27.47;40.51;100385.03;4953911;29;860;-61
2022/07/18 06:29:30;;;;;;;;;;;;;;;27.72;39.46;100393.94;4954212;29;866;-63
2022/07/18 06:31:56;;;;;;;;;;;;;;;27.80;39.48;100395.81;4953756;29;852;-62
2022/07/18 06:34:22;;;;;;;;;;;;;;;28.23;39.03;100394.94;4953156;28;915;-62
2022/07/18 06:36:49;;;;;;;;;;;;;;;28.68;38.17;100398.72;4953728;29;1882;-63
2022/07/18 06:39:25;;;;;;;;;;;;;;;28.82;36.98;100410.34;4953712;29;824;-61
2022/07/18 06:41:52;;;;;;;;;;;;;;;28.90;37.12;100405.72;4953720;29;811;-62
2022/07/18 06:56:30;;;;;;;;;;;;;;;29.69;36.18;100415.00;4954117;29;1969;-62
2022/07/18 06:58:57;;;;;;;;;;;;;;;29.79;36.23;100404.09;4953648;29;874;-62
2022/07/18 07:01:24;;;;;;;;;;;;;;;30.15;36.02;100398.50;4953587;29;1176;-62
2022/07/18 07:03:54;;;;;;;;;;;;;;;30.63;34.91;100393.59;4953759;29;811;-61
2022/07/18 07:06:20;;;;;;;;;;;;;;;30.67;34.32;100406.25;4953637;29;1006;-61
2022/07/18 07:08:47;;;;;;;;;;;;;;;31.08;33.47;100402.59;4953498;29;823;-61
2022/07/18 07:14:35;;;;;;;;;;;;;;;31.91;33.08;100410.84;4947857;29;1220;-61
2022/07/18 07:17:01;;;;;;;;;;;;;;;31.79;32.88;100412.28;4953633;29;1949;-62
2022/07/18 07:19:31;;;;;;;;;;;;;;;31.70;32.20;100413.44;4953269;29;859;-62
2022/07/18 07:21:58;;;;;;;;;;;;;;;31.56;32.33;100408.13;4953428;29;807;-62
2022/07/18 07:24:25;;;;;;;;;;;;;;;31.94;32.99;100409.78;4953329;29;940;-62
2022/07/18 07:26:52;;;;;;;;;;;;;;;32.50;32.03;100410.38;4953256;29;851;-62
2022/07/18 07:29:18;;;;;;;;;;;;;;;32.56;31.15;100408.22;4953300;29;843;-61
2022/07/18 07:31:45;;;;;;;;;;;;;;;32.47;31.53;100406.50;4953279;29;800;-62
2022/07/18 07:34:12;;;;;;;;;;;;;;;32.24;31.21;100405.25;4953601;29;1009;-63
2022/07/18 07:36:39;;;;;;;;;;;;;;;31.90;31.52;100419.94;4953177;29;1954;-63
2022/07/18 07:39:06;;;;;;;;;;;;;;;31.91;32.50;100422.28;4953151;29;1051;-63
2022/07/18 07:41:33;;;;;;;;;;;;;;;32.52;30.95;100413.47;4953390;29;804;-63
2022/07/18 07:44:01;;;;;;;;;;;;;;;32.40;30.72;100423.53;4953126;29;819;-62
2022/07/18 07:46:28;;;;;;;;;;;;;;;32.31;31.71;100421.81;4955630;28;819;-63
2022/07/18 07:48:55;;;;;;;;;;;;;;;32.66;31.18;100422.91;4956786;29;894;-63
2022/07/18 07:51:21;;;;;;;;;;;;;;;32.70;30.98;100427.00;4956768;29;878;-62
2022/07/18 07:53:48;;;;;;;;;;;;;;;32.60;30.64;100417.25;4956637;29;855;-63
2022/07/18 07:56:18;;;;;;;;;;;;;;;32.53;30.78;100420.75;4956627;29;1971;-63
2022/07/18 07:58:46;;;;;;;;;;;;;;;32.64;30.84;100414.84;4956592;29;843;-63
2022/07/18 08:01:14;;;;;;;;;;;;;;;32.87;30.47;100420.25;4956948;29;1425;-63
2022/07/18 08:03:41;;;;;;;;;;;;;;;32.60;30.75;100425.06;4956847;29;968;-63
2022/07/18 08:06:08;;;;;;;;;;;;;;;32.60;31.21;100422.97;4956939;29;869;-63
2022/07/18 08:08:35;;;;;;;;;;;;;;;32.21;31.38;100424.28;4956800;29;855;-63
2022/07/18 08:11:02;;;;;;;;;;;;;;;31.85;32.44;100430.16;4956597;29;815;-63
2022/07/18 08:13:29;;;;;;;;;;;;;;;32.02;32.00;100423.50;4956609;29;868;-63
2022/07/18 08:15:55;;;;;;;;;;;;;;;31.94;32.17;100423.28;4956403;29;1914;-63
2022/07/18 08:18:21;;;;;;;;;;;;;;;32.39;32.03;100425.63;4956656;29;780;-63
2022/07/18 08:20:48;;;;;;;;;;;;;;;32.81;31.18;100431.78;4956178;29;880;-63
2022/07/18 08:23:16;;;;;;;;;;;;;;;32.91;30.59;100432.16;4956215;29;812;-63
2022/07/18 08:25:44;;;;;;;;;;;;;;;33.00;31.22;100439.56;4956259;29;847;-64
2022/07/18 08:28:11;;;;;;;;;;;;;;;33.15;30.62;100434.88;4956380;29;839;-63
2022/07/18 08:30:39;;;;;;;;;;;;;;;32.85;30.30;100437.19;4956510;29;819;-63
2022/07/18 08:33:06;;;;;;;;;;;;;;;32.69;31.07;100421.81;4939072;29;1328;-63
2022/07/18 08:35:33;;;;;;;;;;;;;;;32.86;31.41;100427.28;4956152;29;894;-63
2022/07/18 08:38:00;;;;;;;;;;;;;;;33.00;30.81;100431.72;4956153;29;1949;-63
2022/07/18 08:40:27;;;;;;;;;;;;;;;32.51;31.27;100429.84;4955910;29;843;-63
2022/07/18 08:42:54;;;;;;;;;;;;;;;32.86;31.20;100421.53;4956015;29;800;-63
2022/07/18 08:45:22;;;;;;;;;;;;;;;32.86;30.87;100424.41;4956230;29;838;-63
2022/07/18 08:47:49;;;;;;;;;;;;;;;32.74;31.22;100443.84;4956066;29;784;-63
2022/07/18 08:50:16;;;;;;;;;;;;;;;32.48;31.34;100430.16;4955745;29;803;-64
2022/07/18 08:52:43;;;;;;;;;;;;;;;32.39;31.57;100427.69;4955673;29;863;-63
2022/07/18 08:55:10;;;;;;;;;;;;;;;32.33;31.18;100422.06;4955715;29;1077;-63
2022/07/18 08:57:37;;;;;;;;;;;;;;;32.02;31.31;100432.06;4954734;28;1949;-63
2022/07/18 09:00:05;;;;;;;;;;;;;;;31.86;31.92;100433.78;4938346;29;819;-62
2022/07/18 09:02:32;;;;;;;;;;;;;;;31.71;32.47;100439.94;4955651;29;1131;-64
2022/07/18 09:05:00;;;;;;;;;;;;;;;31.77;32.65;100440.63;4955501;29;851;-63
2022/07/18 09:07:29;;;;;;;;;;;;;;;31.53;31.52;100441.41;4955419;29;815;-63
2022/07/18 09:09:58;;;;;;;;;;;;;;;31.25;32.25;100442.41;4955169;29;862;-64
2022/07/18 09:12:25;;;;;;;;;;;;;;;31.20;33.17;100437.53;4938089;29;1194;-64
2022/07/18 09:14:53;;;;;;;;;;;;;;;31.40;32.32;100438.41;4955253;29;871;-63
2022/07/18 09:17:23;;;;;;;;;;;;;;;31.13;32.28;100438.91;4955244;29;1895;-63
2022/07/18 09:20:04;;;;;;;;;;;;;;;30.82;33.29;100436.50;4955108;29;764;-63
2022/07/18 09:22:32;;;;;;;;;;;;;;;30.70;33.83;100438.66;4955156;29;897;-63
2022/07/18 09:25:01;;;;;;;;;;;;;;;30.80;32.87;100442.75;4955048;29;855;-63
2022/07/18 09:27:29;;;;;;;;;;;;;;;30.57;33.95;100447.03;4954982;29;879;-63
2022/07/18 09:30:09;;;;;;;;;;;;;;;30.86;33.26;100434.16;4955020;29;854;-64
2022/07/18 09:32:37;;;;;;;;;;;;;;;30.80;34.05;100433.41;4955208;29;874;-63
2022/07/18 09:35:09;;;;;;;;;;;;;;;30.74;33.71;100442.78;4954960;29;874;-64
2022/07/18 09:37:35;;;;;;;;;;;;;;;30.44;33.61;100441.94;4954797;29;1886;-64
2022/07/18 09:40:18;;;;;;;;;;;;;;;30.51;33.42;100444.22;4954684;29;851;-64
2022/07/18 09:42:54;;;;;;;;;;;;;;;30.17;34.01;100432.97;4937749;29;1233;-63
2022/07/18 09:45:24;;;;;;;;;;;;;;;30.44;33.10;100442.69;4954758;29;906;-62
2022/07/18 09:47:53;;;;;;;;;;;;;;;30.70;32.89;100435.81;4954609;29;827;-64
2022/07/18 09:50:21;;;;;;;;;;;;;;;31.17;32.92;100434.97;4954662;29;854;-63
2022/07/18 09:52:57;;;;;;;;;;;;;;;31.83;31.58;100441.34;4954482;29;836;-63
2022/07/18 09:55:25;;;;;;;;;;;;;;;31.84;31.05;100442.13;4954575;29;854;-63
2022/07/18 09:58:05;;;;;;;;;;;;;;;31.53;31.37;100439.31;4954338;29;1910;-63
2022/07/18 10:00:34;;;;;;;;;;;;;;;31.58;32.36;100434.09;4954396;29;812;-63
2022/07/18 10:03:02;;;;;;;;;;;;;;;31.26;32.19;100434.63;4936225;29;1139;-63
2022/07/18 10:33:54;;;;;;;;;;;;;;;29.39;34.15;100422.53;4945950;26;1553;-64
2022/07/18 10:36:22;;;;;;;;;;;;;;;28.74;34.75;100426.38;4953835;29;1918;-63
2022/07/18 10:39:06;;;;;;;;;;;;;;;29.00;34.33;100426.94;4953869;29;815;-63
2022/07/18 10:41:54;;;;;;;;;;;;;;;29.55;33.89;100415.25;4953858;29;1144;-63
2022/07/18 10:56:38;;;;;;;;;;;;;;;30.28;32.29;100418.69;4953601;29;1914;-63
2022/07/18 10:59:24;;;;;;;;;;;;;;;30.26;32.42;100412.69;4954058;29;838;-63
2022/07/18 11:01:55;;;;;;;;;;;;;;;30.55;32.43;100407.63;4953699;29;815;-64
2022/07/18 11:07:24;;;;;;;;;;;;;;;30.88;31.69;100403.03;4953604;29;681;-63
2022/07/18 11:09:51;;;;;;;;;;;;;;;31.18;31.33;100394.47;4953473;29;815;-63
2022/07/18 11:12:18;;;;;;;;;;;;;;;31.62;30.27;100403.94;4953477;29;788;-64
2022/07/18 11:15:03;;;;;;;;;;;;;;;32.09;30.12;100389.38;4936218;29;891;-64
2022/07/18 11:20:41;;;;;;;;;;;;;;;32.37;29.64;100384.53;4954554;28;1098;-63
2022/07/18 11:23:37;;;;;;;;;;;;;;;33.07;29.73;100379.56;4957501;29;788;-63
2022/07/18 11:26:04;;;;;;;;;;;;;;;33.51;28.72;100377.22;4940269;29;1283;-63
2022/07/18 11:28:32;;;;;;;;;;;;;;;33.25;28.22;100377.22;4957524;29;788;-62
2022/07/18 11:31:04;;;;;;;;;;;;;;;32.74;28.74;100380.91;4957025;29;936;-63
2022/07/18 11:33:32;;;;;;;;;;;;;;;32.51;28.63;100366.91;4956873;28;1472;-62
2022/07/18 11:36:04;;;;;;;;;;;;;;;32.53;28.96;100372.13;4957135;29;1973;-63
2022/07/18 11:38:29;;;;;;;;;;;;;;;32.49;29.18;100374.50;4957034;29;870;-63
2022/07/18 11:40:56;;;;;;;;;;;;;;;32.93;28.89;100364.44;4956914;28;783;-63
2022/07/18 11:43:32;;;;;;;;;;;;;;;33.96;28.34;100366.97;4956996;29;796;-63
2022/07/18 11:46:09;;;;;;;;;;;;;;;34.19;27.08;100372.25;4956946;29;851;-63
2022/07/18 11:48:39;;;;;;;;;;;;;;;33.99;26.92;100356.47;4956850;29;887;-63
2022/07/18 11:51:13;;;;;;;;;;;;;;;33.87;26.91;100364.56;4956797;29;800;-62
2022/07/18 11:53:45;;;;;;;;;;;;;;;33.74;27.00;100365.34;4957153;29;827;-63
2022/07/18 11:56:12;;;;;;;;;;;;;;;32.81;27.77;100362.31;4956660;28;1895;-64
2022/07/18 11:58:41;;;;;;;;;;;;;;;31.43;28.91;100352.47;4956666;29;854;-64
2022/07/18 12:01:08;;;;;;;;;;;;;;;31.98;29.43;100346.59;4956567;29;839;-63
2022/07/18 12:03:35;;;;;;;;;;;;;;;33.14;27.78;100346.69;4956496;28;791;-64
2022/07/18 12:06:12;;;;;;;;;;;;;;;34.06;27.04;100342.25;4956703;29;870;-63
2022/07/18 12:08:49;;;;;;;;;;;;;;;34.27;26.01;100338.66;4939281;29;890;-63
2022/07/18 12:11:21;;;;;;;;;;;;;;;35.00;25.70;100339.78;4956390;28;860;-64
2022/07/18 12:13:55;;;;;;;;;;;;;;;35.96;24.69;100337.88;4956419;29;800;-63
2022/07/18 12:16:30;;;;;;;;;;;;;;;35.90;24.12;100334.41;4956259;29;1891;-63
2022/07/18 12:19:16;;;;;;;;;;;;;;;36.00;23.76;100334.66;4956198;29;903;-63
2022/07/18 12:21:51;;;;;;;;;;;;;;;35.34;24.87;100339.66;4955579;29;1297;-64
2022/07/18 12:24:20;;;;;;;;;;;;;;;34.64;25.58;100333.91;4956217;29;808;-64
2022/07/18 12:26:47;;;;;;;;;;;;;;;34.73;25.56;100334.19;4956159;29;819;-63
2022/07/18 12:29:14;;;;;;;;;;;;;;;35.41;24.78;100331.66;4956112;29;831;-64
2022/07/18 12:31:45;;;;;;;;;;;;;;;36.06;24.01;100329.50;4955093;28;1043;-63
2022/07/18 12:37:27;;;;;;;;;;;;;;;31.71;28.38;100343.56;4936806;29;1973;-64
2022/07/18 12:39:56;;;;;;;;;;;;;;;30.99;29.36;100340.16;4936812;29;901;-63
2022/07/18 12:45:40;;;;;;;;;;;;;;;35.42;25.46;100328.22;4936431;29;1078;-64
2022/07/18 12:48:08;;;;;;;;;;;;;;;35.46;25.02;100334.34;4936647;29;795;-64
2022/07/18 12:50:35;;;;;;;;;;;;;;;33.18;26.99;100337.75;4936608;29;871;-64
2022/07/18 12:53:02;;;;;;;;;;;;;;;31.30;28.76;100340.88;4936512;29;808;-63
2022/07/18 12:55:28;;;;;;;;;;;;;;;30.31;30.23;100339.88;4936574;29;788;-63
2022/07/18 12:57:55;;;;;;;;;;;;;;;29.90;31.30;100341.38;4936429;29;1910;-63
2022/07/18 13:00:20;;;;;;;;;;;;;;;29.56;32.17;100334.22;4936284;29;838;-63
2022/07/18 13:02:55;;;;;;;;;;;;;;;30.43;31.15;100334.88;4936417;29;843;-64
2022/07/18 13:05:22;;;;;;;;;;;;;;;31.95;29.41;100324.81;4936309;29;871;-64
2022/07/18 13:07:49;;;;;;;;;;;;;;;33.44;27.17;100334.16;4936298;29;779;-63
2022/07/18 13:13:18;;;;;;;;;;;;;;;31.16;29.13;100334.28;4936299;29;619;-63
2022/07/18 13:15:50;;;;;;;;;;;;;;;29.82;31.24;100333.91;4936103;29;808;-63
2022/07/18 13:18:17;;;;;;;;;;;;;;;28.61;32.79;100341.56;4936044;29;1887;-63
2022/07/18 13:20:42;;;;;;;;;;;;;;;28.16;33.53;100342.22;4936043;29;835;-63
2022/07/18 13:23:11;;;;;;;;;;;;;;;27.90;34.17;100343.19;4935908;29;836;-63
2022/07/18 13:25:38;;;;;;;;;;;;;;;27.72;34.67;100343.63;4934735;29;1261;-63
2022/07/18 13:28:04;;;;;;;;;;;;;;;27.76;35.25;100343.34;4934637;29;1210;-63
2022/07/18 13:30:31;;;;;;;;;;;;;;;28.10;35.40;100336.56;4935845;29;847;-63
2022/07/18 13:32:57;;;;;;;;;;;;;;;29.19;34.32;100326.81;4942038;29;1418;-63
2022/07/18 13:35:24;;;;;;;;;;;;;;;29.27;34.26;100322.91;4955129;29;870;-63
2022/07/18 13:37:50;;;;;;;;;;;;;;;29.10;34.10;100330.69;4954826;29;1942;-63
2022/07/18 13:40:16;;;;;;;;;;;;;;;28.76;33.99;100327.09;4954760;29;831;-63
2022/07/18 13:42:42;;;;;;;;;;;;;;;28.49;34.78;100329.41;4954619;28;871;-63
2022/07/18 13:45:08;;;;;;;;;;;;;;;28.09;35.06;100331.38;4954606;29;988;-63
2022/07/18 13:47:36;;;;;;;;;;;;;;;27.92;35.26;100331.31;4954698;29;812;-63
2022/07/18 13:50:02;;;;;;;;;;;;;;;28.03;34.63;100330.56;4937392;29;1369;-63
2022/07/18 13:52:29;;;;;;;;;;;;;;;28.39;34.69;100330.91;4954581;29;847;-63
2022/07/18 13:54:56;;;;;;;;;;;;;;;28.48;34.66;100327.81;4954567;29;871;-63
2022/07/18 13:57:22;;;;;;;;;;;;;;;28.25;34.82;100332.69;4954383;28;1969;-62
2022/07/18 13:59:49;;;;;;;;;;;;;;;28.09;35.31;100325.69;4954598;29;811;-63
2022/07/18 14:02:15;;;;;;;;;;;;;;;27.76;35.01;100326.31;4954364;29;823;-63
2022/07/18 14:04:42;;;;;;;;;;;;;;;27.56;34.74;100319.53;4954648;29;855;-63
2022/07/18 14:07:11;;;;;;;;;;;;;;;27.57;35.33;100317.44;4954329;29;804;-63
2022/07/18 14:09:38;;;;;;;;;;;;;;;27.38;35.30;100320.72;4954277;29;882;-63
2022/07/18 14:12:05;;;;;;;;;;;;;;;27.30;35.59;100313.97;4954384;29;845;-63
2022/07/18 14:14:31;;;;;;;;;;;;;;;27.55;35.63;100312.31;4954199;29;802;-63
2022/07/18 14:16:58;;;;;;;;;;;;;;;27.90;35.63;100319.69;4936901;29;1890;-63
2022/07/18 14:19:24;;;;;;;;;;;;;;;28.37;35.19;100314.38;4954184;29;862;-63
2022/07/18 14:21:50;;;;;;;;;;;;;;;29.31;33.64;100314.88;4954137;29;803;-63
2022/07/18 14:24:17;;;;;;;;;;;;;;;28.91;34.06;100317.00;4953994;29;926;-63
2022/07/18 14:26:43;;;;;;;;;;;;;;;28.48;35.28;100311.56;4954027;29;878;-63
2022/07/18 14:29:10;;;;;;;;;;;;;;;28.02;36.15;100312.75;4953875;29;867;-63
2022/07/18 14:31:37;;;;;;;;;;;;;;;27.70;37.18;100312.09;4954045;28;878;-63
2022/07/18 14:34:03;;;;;;;;;;;;;;;27.95;37.56;100312.47;4953767;29;1279;-63
2022/07/18 14:36:30;;;;;;;;;;;;;;;28.43;36.61;100303.00;4936582;29;1922;-62
2022/07/18 14:38:57;;;;;;;;;;;;;;;28.32;36.50;100297.31;4953770;28;867;-63
2022/07/18 14:41:23;;;;;;;;;;;;;;;27.58;37.60;100310.50;4954076;29;855;-63
2022/07/18 14:47:01;;;;;;;;;;;;;;;26.93;38.64;100296.94;4953280;29;1063;-64
2022/07/18 14:49:27;;;;;;;;;;;;;;;26.83;38.61;100299.97;4953676;29;894;-63
2022/07/18 14:51:54;;;;;;;;;;;;;;;26.93;38.08;100297.72;4953706;29;831;-63
2022/07/18 14:54:20;;;;;;;;;;;;;;;26.73;38.83;100297.81;4936146;28;1277;-63
2022/07/18 14:56:47;;;;;;;;;;;;;;;27.47;38.11;100303.47;4953387;29;1919;-62
2022/07/18 14:59:13;;;;;;;;;;;;;;;28.25;36.36;100307.91;4953499;29;847;-63
2022/07/18 15:01:41;;;;;;;;;;;;;;;28.01;36.55;100308.34;4953534;28;875;-63
2022/07/18 15:04:11;;;;;;;;;;;;;;;27.18;37.96;100310.25;4953582;29;847;-62
2022/07/18 15:06:37;;;;;;;;;;;;;;;26.55;38.70;100302.53;4953440;29;883;-62
2022/07/18 15:09:04;;;;;;;;;;;;;;;26.21;39.22;100301.47;4953682;29;851;-63
2022/07/18 15:11:30;;;;;;;;;;;;;;;25.90;39.89;100299.31;4953448;29;855;-64
2022/07/18 15:13:57;;;;;;;;;;;;;;;25.73;40.22;100301.91;4953747;29;774;-63
2022/07/18 15:16:24;;;;;;;;;;;;;;;25.66;40.68;100303.13;4953362;29;1953;-63
2022/07/18 15:18:50;;;;;;;;;;;;;;;25.52;40.57;100306.78;4953443;29;828;-65
2022/07/18 15:21:17;;;;;;;;;;;;;;;25.35;40.89;100298.88;4936083;29;1305;-63
2022/07/18 15:23:43;;;;;;;;;;;;;;;25.19;40.91;100299.38;4953366;29;847;-62
2022/07/18 15:26:10;;;;;;;;;;;;;;;25.11;41.25;100309.53;4953653;29;815;-63
2022/07/18 15:28:37;;;;;;;;;;;;;;;25.04;41.42;100317.16;4953183;28;800;-63
2022/07/18 15:31:04;;;;;;;;;;;;;;;24.91;41.71;100313.88;4953292;28;1123;-62
2022/07/18 15:33:31;;;;;;;;;;;;;;;24.81;41.80;100310.38;4953080;29;1245;-63
2022/07/18 15:35:59;;;;;;;;;;;;;;;24.69;41.59;100313.50;4953265;28;965;-62
2022/07/18 15:38:26;;;;;;;;;;;;;;;24.60;42.35;100315.19;4953257;29;832;-63
2022/07/18 15:40:53;;;;;;;;;;;;;;;24.64;42.36;100317.78;4953498;29;764;-62
2022/07/18 15:43:18;;;;;;;;;;;;;;;24.67;42.43;100307.59;4953172;29;1021;-61
2022/07/18 15:45:45;;;;;;;;;;;;;;;24.62;42.51;100309.84;4953300;29;886;-61
2022/07/18 15:48:12;;;;;;;;;;;;;;;24.45;42.97;100318.00;4953152;29;831;-61
2022/07/18 15:50:38;;;;;;;;;;;;;;;24.30;43.41;100324.88;4953047;29;874;-61
2022/07/18 15:53:05;;;;;;;;;;;;;;;24.22;43.70;100316.03;4953291;29;804;-61
2022/07/18 15:55:32;;;;;;;;;;;;;;;24.11;43.83;100322.25;4953259;28;879;-62
2022/07/18 15:57:59;;;;;;;;;;;;;;;24.12;44.38;100326.59;4935763;29;1943;-61
2022/07/18 16:00:26;;;;;;;;;;;;;;;24.05;44.27;100327.78;4953141;28;856;-61
2022/07/18 16:02:53;;;;;;;;;;;;;;;24.06;44.19;100325.72;4953180;29;808;-61